sensor_id;sensor_type;location;lat;lon;timestamp;pressure;altitude;pressure_sealevel;temperature;humidity
76819;BME280;65772;51.096;17.006;2022-12-07T00:02:04;99816.80;;;5.11;71.91
76819;BME280;65772;51.096;17.006;2022-12-07T00:04:34;99813.97;;;5.08;72.01
76819;BME280;65772;51.096;17.006;2022-12-07T00:07:05;99814.52;;;5.06;71.94
76819;BME280;65772;51.096;17.006;2022-12-07T00:09:35;99818.02;;;5.04;71.98
76819;BME280;65772;51.096;17.006;2022-12-07T00:12:06;99810.41;;;5.09;71.61
76819;BME280;65772;51.096;17.006;2022-12-07T00:14:37;99808.61;;;5.13;71.92
76819;BME280;65772;51.096;17.006;2022-12-07T00:17:07;99803.51;;;5.17;72.07
76819;BME280;65772;51.096;17.006;2022-12-07T00:19:38;99800.95;;;5.21;71.67
76819;BME280;65772;51.096;17.006;2022-12-07T00:22:08;99796.23;;;5.22;71.75
76819;BME280;65772;51.096;17.006;2022-12-07T00:24:39;99794.67;;;5.21;71.74
76819;BME280;65772;51.096;17.006;2022-12-07T00:27:09;99795.85;;;5.21;71.64
76819;BME280;65772;51.096;17.006;2022-12-07T00:29:40;99790.96;;;5.16;71.37
76819;BME280;65772;51.096;17.006;2022-12-07T00:32:10;99788.37;;;5.15;71.51
76819;BME280;65772;51.096;17.006;2022-12-07T00:34:41;99785.46;;;5.14;71.60
76819;BME280;65772;51.096;17.006;2022-12-07T00:37:12;99784.33;;;5.11;71.49
76819;BME280;65772;51.096;17.006;2022-12-07T00:39:42;99785.10;;;5.10;71.12
76819;BME280;65772;51.096;17.006;2022-12-07T00:42:13;99780.27;;;5.07;71.48
76819;BME280;65772;51.096;17.006;2022-12-07T00:44:43;99782.52;;;5.05;71.14
76819;BME280;65772;51.096;17.006;2022-12-07T00:47:14;99783.05;;;4.97;71.11
76819;BME280;65772;51.096;17.006;2022-12-07T00:49:44;99780.26;;;4.92;71.16
76819;BME280;65772;51.096;17.006;2022-12-07T00:52:15;99780.75;;;4.91;71.01
76819;BME280;65772;51.096;17.006;2022-12-07T00:54:45;99784.08;;;4.98;71.46
76819;BME280;65772;51.096;17.006;2022-12-07T00:57:16;99780.23;;;4.99;71.28
76819;BME280;65772;51.096;17.006;2022-12-07T00:59:46;99785.25;;;5.02;71.17
76819;BME280;65772;51.096;17.006;2022-12-07T01:02:18;99788.15;;;5.06;71.30
76819;BME280;65772;51.096;17.006;2022-12-07T01:04:48;99790.55;;;5.07;71.27
76819;BME280;65772;51.096;17.006;2022-12-07T01:07:19;99789.96;;;5.09;71.02
76819;BME280;65772;51.096;17.006;2022-12-07T01:09:49;99794.73;;;5.10;71.23
76819;BME280;65772;51.096;17.006;2022-12-07T01:12:20;99793.80;;;5.07;71.06
76819;BME280;65772;51.096;17.006;2022-12-07T01:14:50;99787.79;;;4.98;70.92
76819;BME280;65772;51.096;17.006;2022-12-07T01:17:21;99786.88;;;4.84;71.09
76819;BME280;65772;51.096;17.006;2022-12-07T01:19:51;99788.23;;;4.80;71.08
76819;BME280;65772;51.096;17.006;2022-12-07T01:22:22;99786.67;;;4.79;71.08
76819;BME280;65772;51.096;17.006;2022-12-07T01:24:52;99781.42;;;4.79;71.38
76819;BME280;65772;51.096;17.006;2022-12-07T01:27:22;99782.09;;;4.79;71.52
76819;BME280;65772;51.096;17.006;2022-12-07T01:29:53;99780.97;;;4.76;71.17
76819;BME280;65772;51.096;17.006;2022-12-07T01:32:23;99780.20;;;4.70;71.23
76819;BME280;65772;51.096;17.006;2022-12-07T01:34:54;99781.38;;;4.67;71.38
76819;BME280;65772;51.096;17.006;2022-12-07T01:37:24;99782.14;;;4.72;71.34
76819;BME280;65772;51.096;17.006;2022-12-07T01:39:55;99782.65;;;4.72;71.12
76819;BME280;65772;51.096;17.006;2022-12-07T01:42:25;99786.70;;;4.68;70.83
76819;BME280;65772;51.096;17.006;2022-12-07T01:48:15;99787.64;;;4.67;71.47
76819;BME280;65772;51.096;17.006;2022-12-07T01:50:50;99783.94;;;4.71;71.27
76819;BME280;65772;51.096;17.006;2022-12-07T01:53:22;99779.52;;;4.70;71.53
76819;BME280;65772;51.096;17.006;2022-12-07T01:55:56;99780.41;;;4.67;71.50
76819;BME280;65772;51.096;17.006;2022-12-07T01:58:26;99780.48;;;4.62;71.46
76819;BME280;65772;51.096;17.006;2022-12-07T02:00:57;99784.04;;;4.54;71.32
76819;BME280;65772;51.096;17.006;2022-12-07T02:03:31;99783.67;;;4.53;71.66
76819;BME280;65772;51.096;17.006;2022-12-07T02:06:03;99783.23;;;4.55;71.47
76819;BME280;65772;51.096;17.006;2022-12-07T02:08:34;99784.11;;;4.52;71.75
76819;BME280;65772;51.096;17.006;2022-12-07T02:11:06;99785.13;;;4.44;71.74
76819;BME280;65772;51.096;17.006;2022-12-07T02:13:39;99785.82;;;4.49;71.77
76819;BME280;65772;51.096;17.006;2022-12-07T02:16:16;99789.55;;;4.53;71.85
76819;BME280;65772;51.096;17.006;2022-12-07T02:18:58;99785.36;;;4.57;71.64
76819;BME280;65772;51.096;17.006;2022-12-07T02:21:40;99786.98;;;4.63;71.68
76819;BME280;65772;51.096;17.006;2022-12-07T02:24:37;99787.96;;;4.66;71.80
76819;BME280;65772;51.096;17.006;2022-12-07T02:27:39;99783.80;;;4.72;72.13
76819;BME280;65772;51.096;17.006;2022-12-07T02:30:15;99784.35;;;4.76;71.74
76819;BME280;65772;51.096;17.006;2022-12-07T02:32:53;99783.13;;;4.75;71.71
76819;BME280;65772;51.096;17.006;2022-12-07T02:35:30;99786.05;;;4.73;71.77
76819;BME280;65772;51.096;17.006;2022-12-07T02:38:11;99789.58;;;4.69;71.81
76819;BME280;65772;51.096;17.006;2022-12-07T02:40:46;99786.80;;;4.59;71.44
76819;BME280;65772;51.096;17.006;2022-12-07T02:43:21;99789.82;;;4.55;71.48
76819;BME280;65772;51.096;17.006;2022-12-07T02:45:56;99783.55;;;4.51;71.69
76819;BME280;65772;51.096;17.006;2022-12-07T02:48:29;99782.64;;;4.45;71.66
76819;BME280;65772;51.096;17.006;2022-12-07T02:51:02;99782.05;;;4.43;71.93
76819;BME280;65772;51.096;17.006;2022-12-07T02:53:34;99777.02;;;4.44;71.90
76819;BME280;65772;51.096;17.006;2022-12-07T02:56:10;99777.50;;;4.52;71.73
76819;BME280;65772;51.096;17.006;2022-12-07T02:58:54;99779.81;;;4.58;71.95
76819;BME280;65772;51.096;17.006;2022-12-07T03:01:35;99781.13;;;4.64;71.82
76819;BME280;65772;51.096;17.006;2022-12-07T03:04:17;99773.89;;;4.69;71.86
76819;BME280;65772;51.096;17.006;2022-12-07T03:06:57;99772.37;;;4.73;71.71
76819;BME280;65772;51.096;17.006;2022-12-07T03:09:35;99773.20;;;4.72;71.53
76819;BME280;65772;51.096;17.006;2022-12-07T03:12:12;99771.63;;;4.72;71.80
76819;BME280;65772;51.096;17.006;2022-12-07T03:14:52;99771.20;;;4.70;71.57
76819;BME280;65772;51.096;17.006;2022-12-07T03:17:27;99769.34;;;4.70;71.59
76819;BME280;65772;51.096;17.006;2022-12-07T03:20:03;99768.77;;;4.69;71.47
76819;BME280;65772;51.096;17.006;2022-12-07T03:22:38;99764.55;;;4.69;71.49
76819;BME280;65772;51.096;17.006;2022-12-07T03:25:13;99765.91;;;4.69;71.68
76819;BME280;65772;51.096;17.006;2022-12-07T03:27:48;99765.92;;;4.65;71.51
76819;BME280;65772;51.096;17.006;2022-12-07T03:30:24;99764.46;;;4.59;71.52
76819;BME280;65772;51.096;17.006;2022-12-07T03:33:00;99766.75;;;4.57;71.68
76819;BME280;65772;51.096;17.006;2022-12-07T03:35:34;99765.63;;;4.55;71.58
76819;BME280;65772;51.096;17.006;2022-12-07T03:38:14;99760.57;;;4.51;71.36
76819;BME280;65772;51.096;17.006;2022-12-07T03:40:50;99759.38;;;4.50;71.36
76819;BME280;65772;51.096;17.006;2022-12-07T03:43:23;99757.16;;;4.54;71.48
76819;BME280;65772;51.096;17.006;2022-12-07T03:46:00;99754.91;;;4.57;71.29
76819;BME280;65772;51.096;17.006;2022-12-07T03:48:37;99749.51;;;4.61;71.60
76819;BME280;65772;51.096;17.006;2022-12-07T03:51:13;99744.89;;;4.63;71.44
76819;BME280;65772;51.096;17.006;2022-12-07T03:53:50;99746.91;;;4.67;71.52
76819;BME280;65772;51.096;17.006;2022-12-07T03:56:23;99741.64;;;4.70;71.56
76819;BME280;65772;51.096;17.006;2022-12-07T03:58:55;99743.06;;;4.72;71.58
76819;BME280;65772;51.096;17.006;2022-12-07T04:01:26;99742.70;;;4.71;71.59
76819;BME280;65772;51.096;17.006;2022-12-07T04:03:57;99741.72;;;4.68;71.66
76819;BME280;65772;51.096;17.006;2022-12-07T04:06:28;99741.39;;;4.64;71.73
76819;BME280;65772;51.096;17.006;2022-12-07T04:08:58;99745.25;;;4.60;71.60
76819;BME280;65772;51.096;17.006;2022-12-07T04:11:29;99745.98;;;4.58;71.43
76819;BME280;65772;51.096;17.006;2022-12-07T04:13:59;99743.33;;;4.55;71.71
76819;BME280;65772;51.096;17.006;2022-12-07T04:16:48;99744.84;;;4.47;71.48
76819;BME280;65772;51.096;17.006;2022-12-07T04:19:20;99749.01;;;4.41;71.48
76819;BME280;65772;51.096;17.006;2022-12-07T04:21:49;99749.31;;;4.37;71.54
76819;BME280;65772;51.096;17.006;2022-12-07T04:24:20;99750.34;;;4.37;71.53
76819;BME280;65772;51.096;17.006;2022-12-07T04:26:51;99751.34;;;4.36;71.41
76819;BME280;65772;51.096;17.006;2022-12-07T04:29:22;99748.35;;;4.34;71.28
76819;BME280;65772;51.096;17.006;2022-12-07T04:31:54;99749.38;;;4.34;71.56
76819;BME280;65772;51.096;17.006;2022-12-07T04:34:25;99748.65;;;4.33;71.46
76819;BME280;65772;51.096;17.006;2022-12-07T04:36:55;99746.10;;;4.33;71.54
76819;BME280;65772;51.096;17.006;2022-12-07T04:39:27;99746.22;;;4.31;71.51
76819;BME280;65772;51.096;17.006;2022-12-07T04:41:58;99744.41;;;4.29;71.75
76819;BME280;65772;51.096;17.006;2022-12-07T04:44:30;99745.13;;;4.22;71.47
76819;BME280;65772;51.096;17.006;2022-12-07T04:47:00;99744.38;;;4.09;71.66
76819;BME280;65772;51.096;17.006;2022-12-07T04:49:31;99741.80;;;4.05;71.87
76819;BME280;65772;51.096;17.006;2022-12-07T04:52:02;99742.53;;;4.02;71.92
76819;BME280;65772;51.096;17.006;2022-12-07T04:54:32;99738.21;;;4.00;72.17
76819;BME280;65772;51.096;17.006;2022-12-07T04:57:03;99736.13;;;3.99;72.11
76819;BME280;65772;51.096;17.006;2022-12-07T04:59:33;99740.02;;;3.99;72.15
76819;BME280;65772;51.096;17.006;2022-12-07T05:02:09;99739.45;;;4.05;72.25
76819;BME280;65772;51.096;17.006;2022-12-07T05:04:39;99737.39;;;4.08;72.43
76819;BME280;65772;51.096;17.006;2022-12-07T05:07:10;99738.95;;;4.13;72.42
76819;BME280;65772;51.096;17.006;2022-12-07T05:09:40;99733.54;;;4.17;72.38
76819;BME280;65772;51.096;17.006;2022-12-07T05:12:11;99736.73;;;4.16;72.45
76819;BME280;65772;51.096;17.006;2022-12-07T05:14:41;99734.94;;;4.18;72.62
76819;BME280;65772;51.096;17.006;2022-12-07T05:17:12;99737.23;;;4.20;72.46
76819;BME280;65772;51.096;17.006;2022-12-07T05:19:42;99735.41;;;4.20;72.38
76819;BME280;65772;51.096;17.006;2022-12-07T05:22:13;99733.36;;;4.20;72.50
76819;BME280;65772;51.096;17.006;2022-12-07T05:24:44;99740.72;;;4.18;72.58
76819;BME280;65772;51.096;17.006;2022-12-07T05:27:15;99735.63;;;4.14;72.63
76819;BME280;65772;51.096;17.006;2022-12-07T05:29:45;99734.29;;;4.11;72.68
76819;BME280;65772;51.096;17.006;2022-12-07T05:32:16;99733.70;;;4.09;72.60
76819;BME280;65772;51.096;17.006;2022-12-07T05:34:46;99735.46;;;4.07;72.66
76819;BME280;65772;51.096;17.006;2022-12-07T05:37:17;99739.75;;;4.04;72.74
76819;BME280;65772;51.096;17.006;2022-12-07T05:39:47;99736.18;;;4.04;72.78
76819;BME280;65772;51.096;17.006;2022-12-07T05:42:18;99738.85;;;4.11;72.59
76819;BME280;65772;51.096;17.006;2022-12-07T05:44:48;99733.74;;;4.13;72.66
76819;BME280;65772;51.096;17.006;2022-12-07T05:47:19;99735.08;;;4.17;72.56
76819;BME280;65772;51.096;17.006;2022-12-07T05:49:49;99740.48;;;4.20;72.39
76819;BME280;65772;51.096;17.006;2022-12-07T05:52:20;99743.61;;;4.22;72.55
76819;BME280;65772;51.096;17.006;2022-12-07T05:54:50;99744.86;;;4.24;72.47
76819;BME280;65772;51.096;17.006;2022-12-07T05:57:21;99743.80;;;4.23;72.13
76819;BME280;65772;51.096;17.006;2022-12-07T05:59:51;99739.55;;;4.22;72.32
76819;BME280;65772;51.096;17.006;2022-12-07T06:02:22;99741.21;;;4.22;72.03
76819;BME280;65772;51.096;17.006;2022-12-07T06:04:52;99742.86;;;4.21;72.16
76819;BME280;65772;51.096;17.006;2022-12-07T06:07:23;99741.41;;;4.19;72.27
76819;BME280;65772;51.096;17.006;2022-12-07T06:09:53;99737.88;;;4.16;72.07
76819;BME280;65772;51.096;17.006;2022-12-07T06:12:23;99740.79;;;4.12;72.10
76819;BME280;65772;51.096;17.006;2022-12-07T06:15:09;99741.70;;;4.07;71.90
76819;BME280;65772;51.096;17.006;2022-12-07T06:17:42;99736.43;;;4.02;71.81
76819;BME280;65772;51.096;17.006;2022-12-07T06:20:12;99735.44;;;3.99;71.71
76819;BME280;65772;51.096;17.006;2022-12-07T06:22:43;99733.77;;;3.96;71.68
76819;BME280;65772;51.096;17.006;2022-12-07T06:25:14;99736.08;;;4.01;71.60
76819;BME280;65772;51.096;17.006;2022-12-07T06:27:44;99737.05;;;4.04;71.52
76819;BME280;65772;51.096;17.006;2022-12-07T06:30:15;99737.42;;;4.09;71.48
76819;BME280;65772;51.096;17.006;2022-12-07T06:32:46;99733.08;;;4.14;71.52
76819;BME280;65772;51.096;17.006;2022-12-07T06:35:16;99730.45;;;4.16;71.43
76819;BME280;65772;51.096;17.006;2022-12-07T06:37:47;99732.60;;;4.18;71.17
76819;BME280;65772;51.096;17.006;2022-12-07T06:40:18;99734.38;;;4.20;71.22
76819;BME280;65772;51.096;17.006;2022-12-07T06:42:48;99731.91;;;4.21;71.21
76819;BME280;65772;51.096;17.006;2022-12-07T06:45:19;99735.37;;;4.23;71.13
76819;BME280;65772;51.096;17.006;2022-12-07T06:47:49;99738.08;;;4.24;71.05
76819;BME280;65772;51.096;17.006;2022-12-07T06:50:20;99738.02;;;4.22;70.98
76819;BME280;65772;51.096;17.006;2022-12-07T06:52:52;99735.89;;;4.20;70.67
76819;BME280;65772;51.096;17.006;2022-12-07T06:55:22;99738.42;;;4.16;70.79
76819;BME280;65772;51.096;17.006;2022-12-07T06:57:52;99742.21;;;4.14;70.66
76819;BME280;65772;51.096;17.006;2022-12-07T07:00:23;99739.21;;;4.11;70.49
76819;BME280;65772;51.096;17.006;2022-12-07T07:02:54;99745.30;;;4.07;70.39
76819;BME280;65772;51.096;17.006;2022-12-07T07:05:24;99743.42;;;4.04;70.55
76819;BME280;65772;51.096;17.006;2022-12-07T07:07:55;99742.11;;;4.00;70.28
76819;BME280;65772;51.096;17.006;2022-12-07T07:10:45;99741.27;;;3.97;70.23
76819;BME280;65772;51.096;17.006;2022-12-07T07:13:16;99738.89;;;3.93;70.09
76819;BME280;65772;51.096;17.006;2022-12-07T07:15:46;99739.87;;;3.92;70.18
76819;BME280;65772;51.096;17.006;2022-12-07T07:18:17;99734.18;;;3.97;69.89
76819;BME280;65772;51.096;17.006;2022-12-07T07:20:47;99734.25;;;4.02;69.81
76819;BME280;65772;51.096;17.006;2022-12-07T07:23:18;99733.73;;;4.06;69.83
76819;BME280;65772;51.096;17.006;2022-12-07T07:25:48;99738.37;;;4.11;69.72
76819;BME280;65772;51.096;17.006;2022-12-07T07:28:19;99730.87;;;4.14;69.69
76819;BME280;65772;51.096;17.006;2022-12-07T07:30:49;99732.40;;;4.17;69.72
76819;BME280;65772;51.096;17.006;2022-12-07T07:33:20;99735.39;;;4.20;69.71
76819;BME280;65772;51.096;17.006;2022-12-07T07:35:51;99733.30;;;4.22;69.60
76819;BME280;65772;51.096;17.006;2022-12-07T07:38:21;99729.73;;;4.26;69.44
76819;BME280;65772;51.096;17.006;2022-12-07T07:40:51;99733.64;;;4.30;69.49
76819;BME280;65772;51.096;17.006;2022-12-07T07:43:22;99729.40;;;4.33;69.21
76819;BME280;65772;51.096;17.006;2022-12-07T07:45:52;99732.16;;;4.35;69.21
76819;BME280;65772;51.096;17.006;2022-12-07T07:48:23;99729.98;;;4.35;69.26
76819;BME280;65772;51.096;17.006;2022-12-07T07:50:54;99731.36;;;4.36;69.02
76819;BME280;65772;51.096;17.006;2022-12-07T07:53:25;99729.77;;;4.34;68.91
76819;BME280;65772;51.096;17.006;2022-12-07T07:55:55;99728.35;;;4.32;68.74
76819;BME280;65772;51.096;17.006;2022-12-07T07:58:26;99727.58;;;4.30;68.90
76819;BME280;65772;51.096;17.006;2022-12-07T08:00:57;99732.14;;;4.30;68.70
76819;BME280;65772;51.096;17.006;2022-12-07T08:03:33;99729.70;;;4.29;68.79
76819;BME280;65772;51.096;17.006;2022-12-07T08:06:05;99736.83;;;4.26;68.66
76819;BME280;65772;51.096;17.006;2022-12-07T08:08:35;99734.61;;;4.21;68.69
76819;BME280;65772;51.096;17.006;2022-12-07T08:11:08;99737.02;;;4.19;68.56
76819;BME280;65772;51.096;17.006;2022-12-07T08:13:38;99738.50;;;4.14;68.41
76819;BME280;65772;51.096;17.006;2022-12-07T08:16:10;99739.95;;;4.17;68.62
76819;BME280;65772;51.096;17.006;2022-12-07T08:18:41;99742.98;;;4.17;68.45
76819;BME280;65772;51.096;17.006;2022-12-07T08:21:14;99741.84;;;4.17;68.35
76819;BME280;65772;51.096;17.006;2022-12-07T08:23:44;99743.79;;;4.19;68.41
76819;BME280;65772;51.096;17.006;2022-12-07T08:26:16;99743.05;;;4.22;68.31
76819;BME280;65772;51.096;17.006;2022-12-07T08:28:47;99743.13;;;4.27;68.50
76819;BME280;65772;51.096;17.006;2022-12-07T08:31:18;99738.80;;;4.32;68.44
76819;BME280;65772;51.096;17.006;2022-12-07T08:33:49;99738.23;;;4.38;68.55
76819;BME280;65772;51.096;17.006;2022-12-07T08:36:20;99735.45;;;4.40;68.17
76819;BME280;65772;51.096;17.006;2022-12-07T08:38:52;99738.66;;;4.40;68.24
76819;BME280;65772;51.096;17.006;2022-12-07T08:41:42;99731.23;;;4.37;68.09
76819;BME280;65772;51.096;17.006;2022-12-07T08:44:13;99733.66;;;4.34;68.00
76819;BME280;65772;51.096;17.006;2022-12-07T08:46:46;99732.66;;;4.35;67.95
76819;BME280;65772;51.096;17.006;2022-12-07T08:49:21;99731.33;;;4.35;67.94
76819;BME280;65772;51.096;17.006;2022-12-07T08:51:54;99727.92;;;4.34;67.91
76819;BME280;65772;51.096;17.006;2022-12-07T08:54:25;99729.58;;;4.33;67.72
76819;BME280;65772;51.096;17.006;2022-12-07T08:56:56;99726.73;;;4.34;67.70
76819;BME280;65772;51.096;17.006;2022-12-07T08:59:29;99722.35;;;4.38;67.67
76819;BME280;65772;51.096;17.006;2022-12-07T09:01:59;99716.48;;;4.43;67.64
76819;BME280;65772;51.096;17.006;2022-12-07T09:04:30;99715.23;;;4.50;67.44
76819;BME280;65772;51.096;17.006;2022-12-07T09:07:01;99717.40;;;4.53;67.31
76819;BME280;65772;51.096;17.006;2022-12-07T09:09:31;99713.65;;;4.56;67.15
76819;BME280;65772;51.096;17.006;2022-12-07T09:12:02;99713.92;;;4.59;66.88
76819;BME280;65772;51.096;17.006;2022-12-07T09:14:33;99709.73;;;4.60;66.81
76819;BME280;65772;51.096;17.006;2022-12-07T09:17:08;99710.13;;;4.61;66.76
76819;BME280;65772;51.096;17.006;2022-12-07T09:19:39;99706.02;;;4.67;66.72
76819;BME280;65772;51.096;17.006;2022-12-07T09:22:11;99704.52;;;4.80;66.55
76819;BME280;65772;51.096;17.006;2022-12-07T09:24:42;99704.58;;;4.90;66.52
76819;BME280;65772;51.096;17.006;2022-12-07T09:27:14;99701.46;;;5.00;66.11
76819;BME280;65772;51.096;17.006;2022-12-07T09:29:46;99694.47;;;5.11;65.79
76819;BME280;65772;51.096;17.006;2022-12-07T09:32:17;99691.53;;;5.22;65.86
76819;BME280;65772;51.096;17.006;2022-12-07T09:34:48;99687.58;;;5.29;65.17
76819;BME280;65772;51.096;17.006;2022-12-07T09:37:19;99685.40;;;5.30;64.91
76819;BME280;65772;51.096;17.006;2022-12-07T09:39:49;99678.06;;;5.32;64.50
76819;BME280;65772;51.096;17.006;2022-12-07T09:42:29;99676.69;;;5.36;64.51
76819;BME280;65772;51.096;17.006;2022-12-07T09:45:04;99674.23;;;5.38;63.94
76819;BME280;65772;51.096;17.006;2022-12-07T09:47:35;99668.27;;;5.37;63.72
76819;BME280;65772;51.096;17.006;2022-12-07T09:50:11;99661.63;;;5.36;63.43
76819;BME280;65772;51.096;17.006;2022-12-07T09:52:43;99666.98;;;5.35;63.41
76819;BME280;65772;51.096;17.006;2022-12-07T09:55:19;99662.34;;;5.33;63.22
76819;BME280;65772;51.096;17.006;2022-12-07T09:57:50;99663.17;;;5.33;63.17
76819;BME280;65772;51.096;17.006;2022-12-07T10:00:24;99662.02;;;5.33;63.05
76819;BME280;65772;51.096;17.006;2022-12-07T10:02:59;99659.39;;;5.35;62.59
76819;BME280;65772;51.096;17.006;2022-12-07T10:05:29;99647.03;;;5.35;62.04
76819;BME280;65772;51.096;17.006;2022-12-07T10:08:01;99646.99;;;5.38;62.61
76819;BME280;65772;51.096;17.006;2022-12-07T10:10:33;99648.11;;;5.41;62.37
76819;BME280;65772;51.096;17.006;2022-12-07T10:13:08;99642.36;;;5.42;62.47
76819;BME280;65772;51.096;17.006;2022-12-07T10:15:45;99637.03;;;5.39;62.21
76819;BME280;65772;51.096;17.006;2022-12-07T10:18:27;99629.55;;;5.34;61.97
76819;BME280;65772;51.096;17.006;2022-12-07T10:21:15;99618.86;;;5.28;61.74
76819;BME280;65772;51.096;17.006;2022-12-07T10:24:01;99617.24;;;5.26;62.25
76819;BME280;65772;51.096;17.006;2022-12-07T10:26:34;99621.19;;;5.23;62.40
76819;BME280;65772;51.096;17.006;2022-12-07T10:29:16;99619.20;;;5.20;62.35
76819;BME280;65772;51.096;17.006;2022-12-07T10:31:52;99616.56;;;5.17;62.57
76819;BME280;65772;51.096;17.006;2022-12-07T10:34:26;99622.41;;;5.15;62.84
76819;BME280;65772;51.096;17.006;2022-12-07T10:37:16;99619.58;;;5.12;62.51
76819;BME280;65772;51.096;17.006;2022-12-07T10:39:49;99623.55;;;5.10;63.16
76819;BME280;65772;51.096;17.006;2022-12-07T10:42:21;99623.85;;;5.09;63.19
76819;BME280;65772;51.096;17.006;2022-12-07T10:45:08;99621.67;;;5.10;63.07
76819;BME280;65772;51.096;17.006;2022-12-07T10:47:45;99617.23;;;5.13;63.31
76819;BME280;65772;51.096;17.006;2022-12-07T10:50:31;99619.69;;;5.15;63.02
76819;BME280;65772;51.096;17.006;2022-12-07T10:53:19;99626.84;;;5.12;63.11
76819;BME280;65772;51.096;17.006;2022-12-07T10:56:05;99631.21;;;5.07;62.79
76819;BME280;65772;51.096;17.006;2022-12-07T10:58:52;99649.05;;;5.09;62.66
76819;BME280;65772;51.096;17.006;2022-12-07T11:01:31;99643.45;;;5.08;62.71
76819;BME280;65772;51.096;17.006;2022-12-07T11:04:15;99651.96;;;5.10;63.38
76819;BME280;65772;51.096;17.006;2022-12-07T11:06:54;99647.16;;;5.08;63.47
76819;BME280;65772;51.096;17.006;2022-12-07T11:12:50;99627.72;;;5.04;64.41
76819;BME280;65772;51.096;17.006;2022-12-07T11:15:26;99627.91;;;5.01;64.54
76819;BME280;65772;51.096;17.006;2022-12-07T11:18:03;99619.54;;;4.98;64.57
76819;BME280;65772;51.096;17.006;2022-12-07T11:20:43;99615.83;;;4.99;64.56
76819;BME280;65772;51.096;17.006;2022-12-07T11:23:24;99612.75;;;4.98;64.55
76819;BME280;65772;51.096;17.006;2022-12-07T11:26:04;99613.92;;;4.97;64.95
76819;BME280;65772;51.096;17.006;2022-12-07T11:28:47;99616.82;;;4.98;64.91
76819;BME280;65772;51.096;17.006;2022-12-07T11:31:25;99604.51;;;4.94;64.93
76819;BME280;65772;51.096;17.006;2022-12-07T11:34:03;99604.69;;;4.91;65.03
76819;BME280;65772;51.096;17.006;2022-12-07T11:36:39;99604.59;;;4.89;65.32
76819;BME280;65772;51.096;17.006;2022-12-07T11:39:20;99599.81;;;4.87;65.26
76819;BME280;65772;51.096;17.006;2022-12-07T11:41:55;99601.53;;;4.84;65.33
76819;BME280;65772;51.096;17.006;2022-12-07T11:44:33;99602.61;;;4.81;65.44
76819;BME280;65772;51.096;17.006;2022-12-07T11:47:09;99601.80;;;4.82;65.64
76819;BME280;65772;51.096;17.006;2022-12-07T11:49:51;99607.89;;;4.90;65.80
76819;BME280;65772;51.096;17.006;2022-12-07T11:52:30;99602.91;;;4.97;65.78
76819;BME280;65772;51.096;17.006;2022-12-07T11:55:04;99597.59;;;5.03;65.83
76819;BME280;65772;51.096;17.006;2022-12-07T11:57:45;99595.88;;;5.12;65.84
76819;BME280;65772;51.096;17.006;2022-12-07T12:00:21;99597.64;;;5.18;65.79
76819;BME280;65772;51.096;17.006;2022-12-07T12:02:55;99601.28;;;5.21;65.49
76819;BME280;65772;51.096;17.006;2022-12-07T12:05:29;99599.83;;;5.22;65.76
76819;BME280;65772;51.096;17.006;2022-12-07T12:08:11;99597.64;;;5.23;66.05
76819;BME280;65772;51.096;17.006;2022-12-07T12:11:08;99601.11;;;5.21;65.94
76819;BME280;65772;51.096;17.006;2022-12-07T12:17:17;99598.19;;;5.14;65.77
76819;BME280;65772;51.096;17.006;2022-12-07T12:20:00;99594.23;;;5.13;65.91
76819;BME280;65772;51.096;17.006;2022-12-07T12:22:37;99588.70;;;5.10;65.58
76819;BME280;65772;51.096;17.006;2022-12-07T12:25:24;99586.80;;;5.09;65.81
76819;BME280;65772;51.096;17.006;2022-12-07T12:27:57;99591.34;;;5.08;65.74
76819;BME280;65772;51.096;17.006;2022-12-07T12:30:35;99589.61;;;5.07;66.00
76819;BME280;65772;51.096;17.006;2022-12-07T12:33:13;99584.44;;;5.05;65.97
76819;BME280;65772;51.096;17.006;2022-12-07T12:35:44;99585.91;;;5.03;65.95
76819;BME280;65772;51.096;17.006;2022-12-07T12:38:33;99584.70;;;5.02;65.80
76819;BME280;65772;51.096;17.006;2022-12-07T12:41:04;99580.63;;;5.02;66.17
76819;BME280;65772;51.096;17.006;2022-12-07T12:43:48;99577.19;;;5.01;65.88
76819;BME280;65772;51.096;17.006;2022-12-07T12:46:47;99574.25;;;5.07;65.75
76819;BME280;65772;51.096;17.006;2022-12-07T12:52:52;99571.42;;;5.18;65.81
76819;BME280;65772;51.096;17.006;2022-12-07T12:58:42;99572.81;;;5.24;65.60
76819;BME280;65772;51.096;17.006;2022-12-07T13:01:45;99571.75;;;5.26;65.29
76819;BME280;65772;51.096;17.006;2022-12-07T13:07:13;99580.69;;;5.26;65.33
76819;BME280;65772;51.096;17.006;2022-12-07T13:10:08;99577.41;;;5.24;65.15
76819;BME280;65772;51.096;17.006;2022-12-07T13:12:59;99580.56;;;5.23;65.33
76819;BME280;65772;51.096;17.006;2022-12-07T13:15:37;99579.52;;;5.22;65.33
76819;BME280;65772;51.096;17.006;2022-12-07T13:18:25;99583.80;;;5.18;65.25
76819;BME280;65772;51.096;17.006;2022-12-07T13:21:42;99586.40;;;5.16;65.35
76819;BME280;65772;51.096;17.006;2022-12-07T13:24:14;99588.24;;;5.11;65.70
76819;BME280;65772;51.096;17.006;2022-12-07T13:26:44;99586.24;;;5.07;65.66
76819;BME280;65772;51.096;17.006;2022-12-07T13:29:17;99585.84;;;5.05;65.23
76819;BME280;65772;51.096;17.006;2022-12-07T13:31:50;99587.47;;;5.04;65.70
76819;BME280;65772;51.096;17.006;2022-12-07T13:34:32;99586.77;;;5.03;65.43
76819;BME280;65772;51.096;17.006;2022-12-07T13:37:10;99587.41;;;5.03;65.46
76819;BME280;65772;51.096;17.006;2022-12-07T13:39:48;99585.67;;;5.02;65.51
76819;BME280;65772;51.096;17.006;2022-12-07T13:42:24;99584.39;;;5.03;65.75
76819;BME280;65772;51.096;17.006;2022-12-07T13:44:57;99587.02;;;5.10;66.00
76819;BME280;65772;51.096;17.006;2022-12-07T13:47:34;99584.96;;;5.14;65.68
76819;BME280;65772;51.096;17.006;2022-12-07T13:50:25;99590.50;;;5.17;65.45
76819;BME280;65772;51.096;17.006;2022-12-07T13:52:58;99587.22;;;5.21;65.68
76819;BME280;65772;51.096;17.006;2022-12-07T13:55:29;99584.94;;;5.22;65.32
76819;BME280;65772;51.096;17.006;2022-12-07T13:58:00;99585.75;;;5.25;65.74